createdAt,value
2019-02-03T00:01:28.887Z,12.93
2019-02-03T00:03:59.461Z,12.33
2019-02-03T00:06:29.993Z,11.40
2019-02-03T00:09:00.802Z,14.40
2019-02-03T00:11:31.396Z,11.63
2019-02-03T00:14:02.003Z,14.73
2019-02-03T00:16:32.535Z,16.20
2019-02-03T00:19:03.482Z,10.53
2019-02-03T00:21:34.260Z,9.53
2019-02-03T00:24:04.945Z,12.07
2019-02-03T00:26:35.499Z,12.90
2019-02-03T00:29:06.318Z,11.23
2019-02-03T00:31:36.826Z,13.17
2019-02-03T00:34:07.572Z,11.13
2019-02-03T00:36:38.150Z,14.50
2019-02-03T00:39:10.834Z,12.20
2019-02-03T00:41:41.637Z,16.03
2019-02-03T00:44:12.279Z,13.37
2019-02-03T00:46:42.860Z,12.50
2019-02-03T00:49:13.428Z,17.00
2019-02-03T00:51:43.993Z,12.40
2019-02-03T00:54:14.552Z,10.27
2019-02-03T00:56:45.090Z,12.63
2019-02-03T00:59:15.681Z,20.10
2019-02-03T01:01:46.347Z,16.23
2019-02-03T01:04:16.920Z,15.90
2019-02-03T01:06:48.263Z,17.70
2019-02-03T01:09:18.832Z,15.53
2019-02-03T01:11:49.407Z,14.17
2019-02-03T01:14:27.327Z,19.77
2019-02-03T01:16:57.896Z,16.80
2019-02-03T01:19:29.137Z,18.57
2019-02-03T01:21:59.996Z,15.60
2019-02-03T01:24:30.527Z,18.90
2019-02-03T01:27:01.151Z,18.67
2019-02-03T01:29:31.703Z,14.50
2019-02-03T01:32:02.258Z,15.87
2019-02-03T01:34:33.560Z,13.27
2019-02-03T01:37:04.100Z,15.33
2019-02-03T01:39:34.698Z,15.50
2019-02-03T01:42:05.255Z,12.17
2019-02-03T01:44:35.830Z,14.03
2019-02-03T01:47:06.421Z,13.00
2019-02-03T01:49:37.629Z,14.20
2019-02-03T01:52:08.225Z,15.17
2019-02-03T01:54:38.751Z,15.53
2019-02-03T01:57:09.249Z,15.40
2019-02-03T01:59:39.765Z,23.50
2019-02-03T02:02:10.345Z,19.40
2019-02-03T02:04:41.594Z,22.40
2019-02-03T02:07:12.208Z,15.47
2019-02-03T02:09:42.763Z,17.57
2019-02-03T02:12:13.306Z,21.47
2019-02-03T02:14:44.591Z,17.80
2019-02-03T02:17:15.233Z,22.70
2019-02-03T02:19:46.439Z,22.30
2019-02-03T02:22:17.125Z,21.57
2019-02-03T02:24:47.663Z,20.10
2019-02-03T02:27:18.245Z,21.83
2019-02-03T02:29:48.762Z,17.03
2019-02-03T02:32:20.081Z,26.17
2019-02-03T02:34:50.643Z,23.43
2019-02-03T02:37:21.209Z,19.73
2019-02-03T02:39:51.794Z,23.33
2019-02-03T02:42:23.068Z,25.50
2019-02-03T02:44:53.773Z,20.87
2019-02-03T02:47:24.575Z,23.53
2019-02-03T02:49:55.109Z,18.47
2019-02-03T02:52:25.651Z,18.53
2019-02-03T02:54:56.200Z,20.60
2019-02-03T02:57:27.451Z,14.87
2019-02-03T02:59:58.231Z,17.23
2019-02-03T03:02:28.809Z,18.03
2019-02-03T03:05:00.333Z,15.73
2019-02-03T03:07:31.272Z,15.00
2019-02-03T03:10:02.336Z,14.37
2019-02-03T03:12:33.457Z,12.40
2019-02-03T03:15:05.036Z,15.57
2019-02-03T03:17:35.608Z,13.70
2019-02-03T03:20:08.017Z,12.63
2019-02-03T03:22:38.584Z,9.60
2019-02-03T03:25:12.521Z,13.47
2019-02-03T03:27:43.092Z,18.07
2019-02-03T03:30:37.150Z,18.33
2019-02-03T03:33:07.761Z,14.23
2019-02-03T03:35:38.363Z,13.70
2019-02-03T03:38:08.997Z,14.07
2019-02-03T03:40:39.551Z,16.53
2019-02-03T03:43:10.113Z,16.03
2019-02-03T03:45:40.625Z,22.90
2019-02-03T03:48:12.089Z,20.50
2019-02-03T03:50:42.665Z,19.80
2019-02-03T03:53:13.196Z,14.40
2019-02-03T03:55:43.735Z,14.33
2019-02-03T03:58:14.297Z,18.60
2019-02-03T04:00:44.875Z,19.63
2019-02-03T04:03:15.365Z,21.90
2019-02-03T04:05:45.952Z,19.80
2019-02-03T04:08:16.478Z,23.77
2019-02-03T04:10:47.063Z,19.93
2019-02-03T04:13:17.608Z,27.57
2019-02-03T04:15:48.363Z,28.67
2019-02-03T04:18:18.939Z,21.17
2019-02-03T04:20:49.448Z,18.03
2019-02-03T04:23:20.016Z,11.90
2019-02-03T04:25:53.598Z,25.23
2019-02-03T04:28:24.253Z,11.20
2019-02-03T04:30:54.797Z,18.63
2019-02-03T04:33:25.347Z,20.50
2019-02-03T04:35:56.281Z,22.87
2019-02-03T04:38:26.803Z,22.83
2019-02-03T04:40:57.409Z,16.20
2019-02-03T04:43:27.963Z,19.07
2019-02-03T04:45:58.515Z,20.13
2019-02-03T04:48:29.480Z,19.20
2019-02-03T04:50:59.988Z,24.60
2019-02-03T04:53:30.551Z,21.53
2019-02-03T04:56:01.144Z,25.53
2019-02-03T04:58:31.658Z,20.83
2019-02-03T05:01:02.244Z,34.23
2019-02-03T05:03:32.785Z,16.93
2019-02-03T05:06:03.338Z,19.23
2019-02-03T05:08:33.948Z,19.27
2019-02-03T05:11:04.523Z,26.70
2019-02-03T05:13:35.160Z,19.20
2019-02-03T05:16:05.705Z,22.03
2019-02-03T05:18:36.305Z,18.70
2019-02-03T05:21:06.834Z,28.13
2019-02-03T05:23:37.439Z,17.10
2019-02-03T05:26:08.016Z,22.37
2019-02-03T05:28:38.587Z,21.50
2019-02-03T05:31:09.183Z,21.17
2019-02-03T05:33:39.740Z,13.07
2019-02-03T05:36:10.340Z,18.47
2019-02-03T05:38:40.907Z,28.23
2019-02-03T05:41:11.457Z,20.50
2019-02-03T05:43:41.979Z,16.60
2019-02-03T05:46:12.545Z,14.57
2019-02-03T05:48:43.088Z,18.37
2019-02-03T05:51:13.742Z,15.90
2019-02-03T05:53:44.292Z,17.03
2019-02-03T05:56:14.804Z,16.37
2019-02-03T05:58:45.391Z,22.00
2019-02-03T06:01:15.988Z,14.90
2019-02-03T06:03:46.561Z,27.93
2019-02-03T06:06:17.098Z,22.33
2019-02-03T06:08:47.631Z,21.20
2019-02-03T06:11:21.173Z,25.60
2019-02-03T06:13:51.761Z,32.73
2019-02-03T06:16:22.323Z,22.20
2019-02-03T06:18:52.937Z,23.53
2019-02-03T06:21:23.547Z,28.13
2019-02-03T06:23:54.080Z,17.43
2019-02-03T06:26:24.635Z,19.47
2019-02-03T06:28:55.225Z,18.40
2019-02-03T06:31:25.734Z,19.33
2019-02-03T06:33:56.680Z,22.10
2019-02-03T06:36:27.303Z,17.87
2019-02-03T06:38:57.902Z,16.67
2019-02-03T06:41:28.539Z,22.10
2019-02-03T06:43:59.056Z,26.30
2019-02-03T06:46:46.962Z,20.17
2019-02-03T06:49:30.418Z,15.13
2019-02-03T06:52:00.956Z,25.07
2019-02-03T06:54:31.527Z,21.43
2019-02-03T06:57:07.097Z,19.37
2019-02-03T06:59:50.578Z,78.93
2019-02-03T07:02:15.794Z,18.77
2019-02-03T07:04:47.032Z,15.93
2019-02-03T07:07:18.243Z,24.20
2019-02-03T07:09:59.697Z,25.57
2019-02-03T07:12:21.907Z,21.03
2019-02-03T07:14:53.411Z,28.23
2019-02-03T07:17:24.616Z,20.87
2019-02-03T07:19:55.605Z,24.37
2019-02-03T07:22:26.209Z,24.00
2019-02-03T07:24:57.118Z,24.57
2019-02-03T07:27:27.670Z,25.03
2019-02-03T07:29:58.255Z,24.93
2019-02-03T07:32:28.856Z,26.53
2019-02-03T07:34:59.412Z,27.33
2019-02-03T07:37:30.447Z,24.50
2019-02-03T07:40:11.771Z,24.30
2019-02-03T07:42:33.273Z,30.00
2019-02-03T07:45:03.904Z,34.27
2019-02-03T07:47:34.435Z,34.90
2019-02-03T07:50:05.815Z,28.63
2019-02-03T07:52:36.329Z,26.17
2019-02-03T07:55:07.558Z,27.50
2019-02-03T07:57:38.063Z,29.27
2019-02-03T08:00:08.862Z,29.67
2019-02-03T08:02:39.788Z,26.07
2019-02-03T08:05:10.630Z,28.90
2019-02-03T08:07:41.177Z,29.13
2019-02-03T08:10:23.872Z,24.20
2019-02-03T08:13:01.840Z,29.43
2019-02-03T08:15:32.372Z,27.30
2019-02-03T08:18:02.876Z,26.33
2019-02-03T08:20:33.483Z,25.53
2019-02-03T08:23:03.968Z,27.90
2019-02-03T08:25:34.595Z,22.40
2019-02-03T08:28:05.821Z,25.27
2019-02-03T08:30:36.471Z,17.17
2019-02-03T08:33:07.022Z,23.27
2019-02-03T08:35:37.785Z,24.20
2019-02-03T08:38:08.586Z,32.27
2019-02-03T08:40:39.136Z,25.53
2019-02-03T08:43:09.695Z,24.50
2019-02-03T08:45:40.360Z,26.97
2019-02-03T08:48:11.055Z,29.00
2019-02-03T08:50:43.760Z,25.60
2019-02-03T08:53:15.004Z,28.83
2019-02-03T08:55:46.920Z,27.60
2019-02-03T08:58:21.303Z,23.40
2019-02-03T09:00:52.171Z,32.20
2019-02-03T09:03:27.299Z,26.00
2019-02-03T09:05:58.075Z,26.60
2019-02-03T09:08:28.635Z,25.00
2019-02-03T09:10:59.220Z,29.50
2019-02-03T09:13:30.016Z,28.10
2019-02-03T09:16:00.533Z,32.13
2019-02-03T09:18:31.136Z,26.37
2019-02-03T09:21:01.662Z,39.97
2019-02-03T09:23:32.236Z,41.73
2019-02-03T09:26:02.918Z,25.67
2019-02-03T09:28:33.442Z,30.27
2019-02-03T09:31:04.085Z,33.30
2019-02-03T09:33:34.609Z,32.13
2019-02-03T09:36:05.729Z,34.47
2019-02-03T09:38:36.328Z,29.07
2019-02-03T09:41:07.097Z,37.40
2019-02-03T09:43:37.675Z,31.93
2019-02-03T09:46:08.372Z,32.23
2019-02-03T09:48:38.888Z,25.70
2019-02-03T09:51:09.473Z,31.13
2019-02-03T09:53:42.313Z,38.30
2019-02-03T09:56:12.804Z,36.23
2019-02-03T09:58:43.382Z,32.20
2019-02-03T10:01:13.977Z,30.73
2019-02-03T10:03:44.518Z,28.13
2019-02-03T10:06:15.065Z,23.77
2019-02-03T10:08:45.574Z,26.73
2019-02-03T10:11:16.161Z,29.73
2019-02-03T10:13:46.723Z,28.93
2019-02-03T10:16:17.286Z,26.37
2019-02-03T10:18:47.818Z,29.70
2019-02-03T10:21:18.331Z,27.73
2019-02-03T10:23:48.906Z,23.63
2019-02-03T10:26:19.489Z,29.73
2019-02-03T10:28:50.072Z,29.50
2019-02-03T10:31:20.637Z,26.07
2019-02-03T10:33:51.306Z,33.53
2019-02-03T10:36:21.968Z,23.23
2019-02-03T10:38:53.349Z,21.07
2019-02-03T10:41:24.582Z,28.13
2019-02-03T10:43:56.427Z,28.70
2019-02-03T10:46:27.202Z,25.90
2019-02-03T10:48:57.773Z,23.70
2019-02-03T10:51:28.350Z,22.07
2019-02-03T10:53:58.936Z,21.60
2019-02-03T10:56:29.787Z,28.40
2019-02-03T10:59:00.359Z,22.63
2019-02-03T11:01:30.916Z,23.33
2019-02-03T11:04:01.612Z,24.20
2019-02-03T11:06:32.133Z,27.63
2019-02-03T11:09:04.315Z,23.60
2019-02-03T11:11:36.576Z,23.70
2019-02-03T11:14:07.881Z,22.47
2019-02-03T11:16:38.486Z,19.30
2019-02-03T11:19:09.160Z,20.77
2019-02-03T11:21:39.775Z,18.10
2019-02-03T11:24:10.388Z,22.80
2019-02-03T11:26:41.101Z,19.67
2019-02-03T11:29:11.755Z,21.97
2019-02-03T11:31:42.272Z,24.90
2019-02-03T11:34:12.890Z,17.73
2019-02-03T11:36:43.710Z,16.43
2019-02-03T11:39:14.291Z,15.40
2019-02-03T11:41:49.270Z,20.87
2019-02-03T11:44:17.327Z,13.20
2019-02-03T11:46:50.597Z,15.90
2019-02-03T11:49:21.346Z,9.77
2019-02-03T11:51:51.904Z,10.97
2019-02-03T11:54:22.668Z,17.80
2019-02-03T11:56:53.178Z,12.07
2019-02-03T11:59:25.514Z,13.17
2019-02-03T12:01:56.373Z,12.20
2019-02-03T12:04:26.938Z,14.50
2019-02-03T12:06:57.439Z,12.30
2019-02-03T12:09:28.022Z,19.43
2019-02-03T12:12:01.796Z,12.30
2019-02-03T12:14:30.831Z,17.87
2019-02-03T12:17:01.390Z,20.27
2019-02-03T12:19:31.918Z,12.70
2019-02-03T12:22:02.428Z,17.20
2019-02-03T12:24:32.991Z,12.63
2019-02-03T12:27:03.599Z,9.70
2019-02-03T12:29:34.136Z,15.20
2019-02-03T12:32:04.858Z,13.50
2019-02-03T12:34:35.422Z,14.70
2019-02-03T12:37:05.966Z,12.20
2019-02-03T12:39:37.575Z,10.17
2019-02-03T12:42:13.213Z,12.00
2019-02-03T12:44:40.419Z,9.40
2019-02-03T12:47:10.988Z,13.83
2019-02-03T12:49:41.508Z,8.40
2019-02-03T12:52:12.124Z,12.77
2019-02-03T12:54:42.691Z,11.50
2019-02-03T12:57:13.261Z,7.30
2019-02-03T12:59:43.862Z,10.00
2019-02-03T13:02:14.376Z,13.00
2019-02-03T13:04:44.969Z,6.50
2019-02-03T13:07:15.497Z,12.27
2019-02-03T13:09:46.043Z,6.30
2019-02-03T13:12:24.658Z,11.50
2019-02-03T13:14:48.864Z,8.93
2019-02-03T13:17:19.365Z,6.80
2019-02-03T13:19:49.908Z,13.63
2019-02-03T13:22:20.549Z,8.10
2019-02-03T13:24:51.125Z,6.53
2019-02-03T13:27:21.610Z,4.83
2019-02-03T13:29:52.232Z,4.50
2019-02-03T13:32:24.651Z,13.53
2019-02-03T13:34:55.281Z,7.07
2019-02-03T13:37:29.327Z,9.23
2019-02-03T13:40:00.047Z,6.57
2019-02-03T13:42:37.337Z,23.13
2019-02-03T13:45:02.883Z,17.27
2019-02-03T13:47:33.477Z,6.13
2019-02-03T13:50:04.535Z,7.67
2019-02-03T13:52:35.118Z,6.37
2019-02-03T13:55:06.316Z,8.10
2019-02-03T13:57:36.849Z,7.43
2019-02-03T14:00:14.319Z,5.30
2019-02-03T14:02:44.569Z,11.43
2019-02-03T14:05:15.317Z,5.33
2019-02-03T14:07:45.913Z,5.00
2019-02-03T14:10:21.114Z,5.80
2019-02-03T14:12:54.935Z,6.40
2019-02-03T14:15:24.283Z,5.50
2019-02-03T14:17:54.969Z,4.47
2019-02-03T14:20:28.252Z,6.60
2019-02-03T14:22:59.635Z,6.27
2019-02-03T14:25:30.812Z,5.57
2019-02-03T14:28:01.386Z,7.30
2019-02-03T14:30:40.301Z,7.27
2019-02-03T14:33:07.944Z,7.33
2019-02-03T14:35:38.624Z,7.20
2019-02-03T14:38:10.051Z,6.90
2019-02-03T14:40:40.616Z,7.37
2019-02-03T14:43:11.560Z,8.43
2019-02-03T14:45:42.395Z,8.73
2019-02-03T14:48:12.974Z,5.30
2019-02-03T14:50:43.519Z,8.00
2019-02-03T14:53:16.567Z,10.93
2019-02-03T14:55:51.766Z,5.63
2019-02-03T14:58:21.602Z,10.63
2019-02-03T15:00:55.413Z,8.00
2019-02-03T15:03:27.419Z,4.50
2019-02-03T15:05:57.971Z,7.43
2019-02-03T15:08:28.452Z,6.93
2019-02-03T15:10:59.025Z,4.63
2019-02-03T15:13:29.804Z,12.33
2019-02-03T15:16:00.340Z,5.83
2019-02-03T15:18:32.592Z,4.87
2019-02-03T15:21:03.180Z,5.03
2019-02-03T15:23:33.785Z,4.30
2019-02-03T15:26:04.468Z,6.03
2019-02-03T15:28:35.029Z,4.80
2019-02-03T15:31:05.675Z,8.70
2019-02-03T15:33:36.197Z,5.83
2019-02-03T15:36:06.784Z,8.53
2019-02-03T15:38:37.333Z,5.10
2019-02-03T15:41:07.857Z,7.60
2019-02-03T15:43:38.439Z,5.00
2019-02-03T15:46:08.987Z,6.70
2019-02-03T15:48:41.906Z,3.87
2019-02-03T15:51:12.422Z,8.07
2019-02-03T15:53:45.082Z,4.43
2019-02-03T15:56:15.644Z,6.63
2019-02-03T15:58:46.186Z,5.00
2019-02-03T16:01:16.897Z,4.97
2019-02-03T16:03:47.457Z,6.27
2019-02-03T16:06:18.057Z,5.63
2019-02-03T16:08:48.633Z,6.37
2019-02-03T16:11:19.182Z,5.27
2019-02-03T16:13:50.086Z,6.60
2019-02-03T16:16:20.611Z,6.63
2019-02-03T16:18:51.226Z,6.37
2019-02-03T16:21:21.834Z,6.30
2019-02-03T16:23:52.403Z,5.33
2019-02-03T16:26:25.971Z,10.00
2019-02-03T16:28:56.466Z,7.37
2019-02-03T16:31:27.043Z,9.00
2019-02-03T16:33:57.618Z,8.27
2019-02-03T16:36:28.490Z,9.30
2019-02-03T16:39:01.922Z,6.73
2019-02-03T16:41:32.475Z,7.63
2019-02-03T16:44:03.034Z,7.40
2019-02-03T16:46:35.238Z,7.53
2019-02-03T16:49:06.104Z,5.70
2019-02-03T16:51:36.632Z,8.00
2019-02-03T16:54:07.394Z,12.33
2019-02-03T16:56:37.992Z,6.97
2019-02-03T16:59:08.580Z,8.47
2019-02-03T17:01:39.143Z,9.93
2019-02-03T17:04:09.702Z,24.93
2019-02-03T17:06:40.351Z,18.13
2019-02-03T17:09:12.088Z,10.03
2019-02-03T17:11:42.659Z,4.80
2019-02-03T17:14:13.286Z,9.70
2019-02-03T17:16:43.849Z,3.40
2019-02-03T17:19:14.505Z,4.90
2019-02-03T17:21:45.084Z,5.40
2019-02-03T17:24:15.726Z,5.63
2019-02-03T17:26:46.323Z,6.97
2019-02-03T17:29:16.813Z,5.70
2019-02-03T17:31:47.390Z,15.13
2019-02-03T17:34:17.995Z,6.87
2019-02-03T17:36:51.250Z,8.73
2019-02-03T17:39:21.803Z,3.77
2019-02-03T17:41:52.328Z,7.47
2019-02-03T17:44:22.872Z,7.87
2019-02-03T17:46:53.415Z,5.70
2019-02-03T17:49:23.950Z,6.97
2019-02-03T17:51:54.602Z,7.93
2019-02-03T17:54:25.117Z,6.50
2019-02-03T17:56:55.825Z,8.10
2019-02-03T17:59:26.378Z,4.13
2019-02-03T18:01:56.936Z,3.63
2019-02-03T18:04:27.471Z,4.50
2019-02-03T18:06:58.034Z,8.30
2019-02-03T18:09:28.758Z,4.17
2019-02-03T18:11:59.422Z,3.87
2019-02-03T18:14:30.088Z,5.10
2019-02-03T18:17:00.601Z,8.10
2019-02-03T18:19:31.205Z,3.17
2019-02-03T18:22:02.065Z,11.80
2019-02-03T18:24:32.679Z,11.60
2019-02-03T18:27:03.260Z,6.80
2019-02-03T18:29:33.827Z,8.57
2019-02-03T18:32:04.372Z,5.50
2019-02-03T18:34:35.300Z,7.33
2019-02-03T18:37:05.818Z,5.53
2019-02-03T18:39:36.450Z,4.87
2019-02-03T18:42:07.413Z,10.53
2019-02-03T18:44:38.045Z,4.80
2019-02-03T18:47:08.887Z,6.17
2019-02-03T18:49:39.485Z,7.73
2019-02-03T18:52:10.035Z,4.63
2019-02-03T18:54:40.680Z,5.37
2019-02-03T18:57:11.241Z,5.20
2019-02-03T18:59:42.135Z,8.03
2019-02-03T19:02:12.699Z,9.03
2019-02-03T19:04:43.269Z,11.07
2019-02-03T19:07:13.808Z,10.53
2019-02-03T19:09:47.458Z,8.60
2019-02-03T19:12:18.407Z,10.43
2019-02-03T19:14:48.940Z,9.83
2019-02-03T19:17:19.523Z,7.83
2019-02-03T19:19:50.051Z,8.13
2019-02-03T19:22:20.600Z,9.00
2019-02-03T19:24:51.594Z,9.07
2019-02-03T19:27:23.313Z,10.60
2019-02-03T19:29:53.886Z,7.30
2019-02-03T19:32:24.441Z,8.40
2019-02-03T19:34:54.999Z,9.40
2019-02-03T19:37:25.840Z,7.70
2019-02-03T19:39:56.440Z,6.60
2019-02-03T19:42:26.956Z,9.27
2019-02-03T19:44:58.696Z,9.73
2019-02-03T19:47:29.367Z,26.03
2019-02-03T19:50:00.342Z,10.40
2019-02-03T19:52:30.919Z,8.50
2019-02-03T19:55:01.560Z,9.80
2019-02-03T19:57:32.137Z,13.97
2019-02-03T20:00:02.833Z,14.30
2019-02-03T20:02:33.778Z,13.03
2019-02-03T20:05:04.630Z,16.00
2019-02-03T20:07:35.149Z,15.63
2019-02-03T20:10:08.914Z,11.30
2019-02-03T20:12:39.456Z,7.17
2019-02-03T20:15:11.454Z,10.60
2019-02-03T20:17:41.978Z,12.30
2019-02-03T20:20:16.983Z,11.37
2019-02-03T20:22:47.529Z,8.27
2019-02-03T20:25:18.788Z,5.53
2019-02-03T20:27:49.630Z,7.23
2019-02-03T20:30:37.294Z,9.23
2019-02-03T20:32:56.851Z,9.57
2019-02-03T20:35:28.443Z,12.40
2019-02-03T20:37:59.567Z,10.23
2019-02-03T20:40:42.175Z,7.87
2019-02-03T20:43:12.666Z,9.23
2019-02-03T20:45:49.387Z,7.90
2019-02-03T20:48:18.371Z,7.10
2019-02-03T20:50:48.880Z,7.10
2019-02-03T20:53:19.443Z,7.80
2019-02-03T20:55:49.960Z,11.30
2019-02-03T20:58:20.566Z,6.93
2019-02-03T21:00:51.145Z,9.20
2019-02-03T21:03:21.674Z,7.00
2019-02-03T21:05:52.264Z,11.87
2019-02-03T21:08:22.829Z,6.60
2019-02-03T21:10:55.603Z,7.43
2019-02-03T21:13:26.196Z,9.00
2019-02-03T21:15:56.720Z,6.83
2019-02-03T21:18:34.577Z,9.40
2019-02-03T21:21:05.181Z,15.47
2019-02-03T21:23:38.528Z,7.13
2019-02-03T21:26:15.822Z,7.23
2019-02-03T21:28:42.755Z,7.23
2019-02-03T21:31:13.466Z,5.10
2019-02-03T21:33:44.054Z,9.80
2019-02-03T21:36:16.372Z,8.07
2019-02-03T21:38:47.233Z,7.03
2019-02-03T21:41:17.860Z,5.07
2019-02-03T21:43:48.419Z,8.10
2019-02-03T21:46:19.090Z,6.03
2019-02-03T21:48:52.684Z,10.10
2019-02-03T21:51:24.263Z,7.73
2019-02-03T21:53:54.863Z,8.03
2019-02-03T21:56:25.417Z,7.33
2019-02-03T21:58:56.230Z,7.07
2019-02-03T22:01:27.033Z,12.07
2019-02-03T22:03:57.746Z,9.50
2019-02-03T22:06:31.485Z,5.67
2019-02-03T22:09:02.351Z,8.43
2019-02-03T22:11:32.916Z,9.27
2019-02-03T22:14:03.595Z,7.53
2019-02-03T22:16:34.231Z,5.30
2019-02-03T22:19:05.027Z,8.00
2019-02-03T22:21:35.628Z,7.27
2019-02-03T22:24:06.463Z,7.30
2019-02-03T22:26:37.200Z,7.27
2019-02-03T22:29:09.350Z,7.50
2019-02-03T22:31:40.147Z,10.60
2019-02-03T22:34:10.913Z,6.60
2019-02-03T22:36:42.095Z,15.17
2019-02-03T22:39:13.070Z,7.73
2019-02-03T22:41:46.817Z,9.87
2019-02-03T22:44:16.309Z,9.47
2019-02-03T22:46:50.136Z,8.60
2019-02-03T22:49:20.886Z,6.43
2019-02-03T22:51:51.877Z,8.47
2019-02-03T22:54:23.863Z,9.57
2019-02-03T22:56:54.447Z,15.63
2019-02-03T22:59:25.395Z,11.17
2019-02-03T23:01:57.055Z,6.13
2019-02-03T23:04:32.526Z,8.97
2019-02-03T23:07:03.246Z,7.70
2019-02-03T23:09:34.184Z,10.80
2019-02-03T23:12:07.700Z,8.10
2019-02-03T23:14:39.408Z,11.53
2019-02-03T23:17:10.160Z,10.30
2019-02-03T23:19:40.804Z,13.20
2019-02-03T23:22:11.498Z,8.10
2019-02-03T23:24:45.097Z,10.50
2019-02-03T23:27:15.979Z,10.63
2019-02-03T23:29:46.566Z,5.80
2019-02-03T23:32:17.116Z,9.67
2019-02-03T23:34:47.670Z,7.57
2019-02-03T23:37:18.285Z,9.73
2019-02-03T23:39:48.933Z,15.93
2019-02-03T23:42:19.498Z,7.80
2019-02-03T23:44:50.054Z,9.87
2019-02-03T23:47:20.627Z,7.20
2019-02-03T23:49:51.179Z,9.28
2019-02-03T23:52:21.782Z,6.03
2019-02-03T23:54:52.319Z,12.50
2019-02-03T23:57:22.821Z,7.90
2019-02-03T23:59:53.427Z,6.10
